sensor_id;sensor_type;location;lat;lon;timestamp;temperature;humidity
39103;DHT22;24847;48.218;16.414;2023-03-23T00:02:06;11.40;99.90
39103;DHT22;24847;48.218;16.414;2023-03-23T00:07:30;11.10;99.90
39103;DHT22;24847;48.218;16.414;2023-03-23T00:12:53;11.10;99.90
39103;DHT22;24847;48.218;16.414;2023-03-23T00:18:18;11.50;99.90
39103;DHT22;24847;48.218;16.414;2023-03-23T00:23:46;11.20;99.90
39103;DHT22;24847;48.218;16.414;2023-03-23T00:29:12;11.10;99.90
39103;DHT22;24847;48.218;16.414;2023-03-23T00:34:36;11.30;99.90
39103;DHT22;24847;48.218;16.414;2023-03-23T00:40:00;11.20;99.90
39103;DHT22;24847;48.218;16.414;2023-03-23T00:45:29;10.80;99.90
39103;DHT22;24847;48.218;16.414;2023-03-23T00:50:52;10.90;99.90
39103;DHT22;24847;48.218;16.414;2023-03-23T00:56:17;11.10;99.90
39103;DHT22;24847;48.218;16.414;2023-03-23T01:01:39;11.10;99.90
39103;DHT22;24847;48.218;16.414;2023-03-23T01:07:02;10.90;99.90
39103;DHT22;24847;48.218;16.414;2023-03-23T01:12:27;10.70;99.90
39103;DHT22;24847;48.218;16.414;2023-03-23T01:17:49;10.70;99.90
39103;DHT22;24847;48.218;16.414;2023-03-23T01:23:12;10.30;99.90
39103;DHT22;24847;48.218;16.414;2023-03-23T01:28:36;10.20;99.90
39103;DHT22;24847;48.218;16.414;2023-03-23T01:33:59;10.00;99.90
39103;DHT22;24847;48.218;16.414;2023-03-23T01:39:21;10.10;99.90
39103;DHT22;24847;48.218;16.414;2023-03-23T01:50:55;10.40;99.90
39103;DHT22;24847;48.218;16.414;2023-03-23T01:56:26;10.00;99.90
39103;DHT22;24847;48.218;16.414;2023-03-23T02:01:55;9.90;99.90
39103;DHT22;24847;48.218;16.414;2023-03-23T02:07:20;9.70;99.90
39103;DHT22;24847;48.218;16.414;2023-03-23T02:12:44;9.90;99.90
39103;DHT22;24847;48.218;16.414;2023-03-23T02:18:16;10.00;99.90
39103;DHT22;24847;48.218;16.414;2023-03-23T02:24:18;9.30;99.90
39103;DHT22;24847;48.218;16.414;2023-03-23T02:30:14;9.20;99.90
39103;DHT22;24847;48.218;16.414;2023-03-23T02:35:53;9.00;99.90
39103;DHT22;24847;48.218;16.414;2023-03-23T02:41:22;9.20;99.90
39103;DHT22;24847;48.218;16.414;2023-03-23T02:46:46;9.60;99.90
39103;DHT22;24847;48.218;16.414;2023-03-23T02:52:14;9.40;99.90
39103;DHT22;24847;48.218;16.414;2023-03-23T02:57:40;9.20;99.90
39103;DHT22;24847;48.218;16.414;2023-03-23T03:03:05;9.40;99.90
39103;DHT22;24847;48.218;16.414;2023-03-23T03:08:37;9.10;99.90
39103;DHT22;24847;48.218;16.414;2023-03-23T03:14:09;9.00;99.90
39103;DHT22;24847;48.218;16.414;2023-03-23T03:19:35;8.80;99.90
39103;DHT22;24847;48.218;16.414;2023-03-23T03:25:01;9.00;99.90
39103;DHT22;24847;48.218;16.414;2023-03-23T03:30:28;8.90;99.90
39103;DHT22;24847;48.218;16.414;2023-03-23T03:35:54;8.80;99.90
39103;DHT22;24847;48.218;16.414;2023-03-23T03:41:19;8.50;99.90
39103;DHT22;24847;48.218;16.414;2023-03-23T03:46:42;8.70;99.90
39103;DHT22;24847;48.218;16.414;2023-03-23T03:52:04;8.70;99.90
39103;DHT22;24847;48.218;16.414;2023-03-23T03:57:28;8.70;99.90
39103;DHT22;24847;48.218;16.414;2023-03-23T04:02:51;8.80;99.90
39103;DHT22;24847;48.218;16.414;2023-03-23T04:08:15;8.90;99.90
39103;DHT22;24847;48.218;16.414;2023-03-23T04:13:40;8.60;99.90
39103;DHT22;24847;48.218;16.414;2023-03-23T04:19:02;8.60;99.90
39103;DHT22;24847;48.218;16.414;2023-03-23T04:24:26;8.50;99.90
39103;DHT22;24847;48.218;16.414;2023-03-23T04:29:53;8.60;99.90
39103;DHT22;24847;48.218;16.414;2023-03-23T04:35:18;8.70;99.90
39103;DHT22;24847;48.218;16.414;2023-03-23T04:40:43;8.40;99.90
39103;DHT22;24847;48.218;16.414;2023-03-23T04:46:08;8.40;99.90
39103;DHT22;24847;48.218;16.414;2023-03-23T04:51:33;8.90;99.90
39103;DHT22;24847;48.218;16.414;2023-03-23T04:57:00;8.60;99.90
39103;DHT22;24847;48.218;16.414;2023-03-23T05:02:24;8.50;99.90
39103;DHT22;24847;48.218;16.414;2023-03-23T05:07:51;8.40;99.90
39103;DHT22;24847;48.218;16.414;2023-03-23T05:13:13;8.00;99.90
39103;DHT22;24847;48.218;16.414;2023-03-23T05:18:37;8.30;99.90
39103;DHT22;24847;48.218;16.414;2023-03-23T05:24:00;8.40;99.90
39103;DHT22;24847;48.218;16.414;2023-03-23T05:29:23;8.40;99.90
39103;DHT22;24847;48.218;16.414;2023-03-23T05:34:47;8.50;99.90
39103;DHT22;24847;48.218;16.414;2023-03-23T05:40:12;8.60;99.90
39103;DHT22;24847;48.218;16.414;2023-03-23T05:45:35;8.80;99.90
39103;DHT22;24847;48.218;16.414;2023-03-23T05:51:00;9.20;99.90
39103;DHT22;24847;48.218;16.414;2023-03-23T05:56:23;9.40;99.90
39103;DHT22;24847;48.218;16.414;2023-03-23T06:01:45;9.30;99.90
39103;DHT22;24847;48.218;16.414;2023-03-23T06:07:09;9.60;99.90
39103;DHT22;24847;48.218;16.414;2023-03-23T06:12:34;9.50;99.90
39103;DHT22;24847;48.218;16.414;2023-03-23T06:17:58;9.50;99.90
39103;DHT22;24847;48.218;16.414;2023-03-23T06:23:22;9.60;99.90
39103;DHT22;24847;48.218;16.414;2023-03-23T06:28:45;9.70;99.90
39103;DHT22;24847;48.218;16.414;2023-03-23T06:34:08;9.60;99.90
39103;DHT22;24847;48.218;16.414;2023-03-23T06:39:33;9.80;99.90
39103;DHT22;24847;48.218;16.414;2023-03-23T06:44:56;10.20;99.90
39103;DHT22;24847;48.218;16.414;2023-03-23T06:50:21;10.10;99.90
39103;DHT22;24847;48.218;16.414;2023-03-23T06:55:45;10.60;99.90
39103;DHT22;24847;48.218;16.414;2023-03-23T07:01:08;10.70;99.90
39103;DHT22;24847;48.218;16.414;2023-03-23T07:06:31;11.20;99.90
39103;DHT22;24847;48.218;16.414;2023-03-23T07:11:54;10.80;99.90
39103;DHT22;24847;48.218;16.414;2023-03-23T07:17:17;10.60;99.90
39103;DHT22;24847;48.218;16.414;2023-03-23T07:22:40;10.60;99.90
39103;DHT22;24847;48.218;16.414;2023-03-23T07:28:04;10.60;99.90
39103;DHT22;24847;48.218;16.414;2023-03-23T07:33:27;10.50;99.90
39103;DHT22;24847;48.218;16.414;2023-03-23T07:38:49;10.60;99.90
39103;DHT22;24847;48.218;16.414;2023-03-23T07:44:13;10.70;99.90
39103;DHT22;24847;48.218;16.414;2023-03-23T07:49:36;11.00;99.90
39103;DHT22;24847;48.218;16.414;2023-03-23T07:54:59;11.10;99.90
39103;DHT22;24847;48.218;16.414;2023-03-23T08:00:24;11.10;99.90
39103;DHT22;24847;48.218;16.414;2023-03-23T08:05:47;11.30;99.90
39103;DHT22;24847;48.218;16.414;2023-03-23T08:11:10;11.70;99.90
39103;DHT22;24847;48.218;16.414;2023-03-23T08:16:35;11.70;99.90
39103;DHT22;24847;48.218;16.414;2023-03-23T08:21:58;11.60;99.90
39103;DHT22;24847;48.218;16.414;2023-03-23T08:27:20;11.50;99.90
39103;DHT22;24847;48.218;16.414;2023-03-23T08:32:45;11.70;99.90
39103;DHT22;24847;48.218;16.414;2023-03-23T08:38:07;11.80;99.90
39103;DHT22;24847;48.218;16.414;2023-03-23T08:43:31;11.60;99.90
39103;DHT22;24847;48.218;16.414;2023-03-23T08:48:55;11.70;99.90
39103;DHT22;24847;48.218;16.414;2023-03-23T08:54:17;13.40;99.90
39103;DHT22;24847;48.218;16.414;2023-03-23T08:59:40;14.70;99.90
39103;DHT22;24847;48.218;16.414;2023-03-23T09:05:05;16.10;99.90
39103;DHT22;24847;48.218;16.414;2023-03-23T09:10:28;16.00;99.90
39103;DHT22;24847;48.218;16.414;2023-03-23T09:15:52;17.50;99.90
39103;DHT22;24847;48.218;16.414;2023-03-23T09:21:16;17.30;99.90
39103;DHT22;24847;48.218;16.414;2023-03-23T09:26:39;17.80;99.90
39103;DHT22;24847;48.218;16.414;2023-03-23T09:32:01;18.10;99.90
39103;DHT22;24847;48.218;16.414;2023-03-23T09:37:25;18.70;99.90
39103;DHT22;24847;48.218;16.414;2023-03-23T09:42:57;18.20;99.90
39103;DHT22;24847;48.218;16.414;2023-03-23T09:48:42;18.80;99.90
39103;DHT22;24847;48.218;16.414;2023-03-23T09:54:16;19.10;99.90
39103;DHT22;24847;48.218;16.414;2023-03-23T09:59:46;19.40;99.30
39103;DHT22;24847;48.218;16.414;2023-03-23T10:05:25;19.80;97.80
39103;DHT22;24847;48.218;16.414;2023-03-23T10:10:59;20.40;96.60
39103;DHT22;24847;48.218;16.414;2023-03-23T10:16:26;20.20;96.60
39103;DHT22;24847;48.218;16.414;2023-03-23T10:21:56;21.00;95.70
39103;DHT22;24847;48.218;16.414;2023-03-23T10:27:28;19.90;95.40
39103;DHT22;24847;48.218;16.414;2023-03-23T10:32:57;20.60;95.10
39103;DHT22;24847;48.218;16.414;2023-03-23T10:38:26;21.00;94.00
39103;DHT22;24847;48.218;16.414;2023-03-23T10:43:52;21.20;93.00
39103;DHT22;24847;48.218;16.414;2023-03-23T10:49:19;20.60;93.00
39103;DHT22;24847;48.218;16.414;2023-03-23T10:54:49;21.40;92.10
39103;DHT22;24847;48.218;16.414;2023-03-23T11:00:20;20.80;92.10
39103;DHT22;24847;48.218;16.414;2023-03-23T11:05:50;21.10;91.70
39103;DHT22;24847;48.218;16.414;2023-03-23T11:11:16;21.40;92.00
39103;DHT22;24847;48.218;16.414;2023-03-23T11:16:46;22.20;91.10
39103;DHT22;24847;48.218;16.414;2023-03-23T11:22:16;21.20;91.90
39103;DHT22;24847;48.218;16.414;2023-03-23T11:27:42;21.50;91.70
39103;DHT22;24847;48.218;16.414;2023-03-23T11:33:08;21.40;90.90
39103;DHT22;24847;48.218;16.414;2023-03-23T11:38:30;20.20;91.40
39103;DHT22;24847;48.218;16.414;2023-03-23T11:43:54;21.40;89.10
39103;DHT22;24847;48.218;16.414;2023-03-23T11:49:25;21.60;89.40
39103;DHT22;24847;48.218;16.414;2023-03-23T11:54:56;20.60;88.50
39103;DHT22;24847;48.218;16.414;2023-03-23T12:00:22;19.90;88.70
39103;DHT22;24847;48.218;16.414;2023-03-23T12:05:50;19.60;90.20
39103;DHT22;24847;48.218;16.414;2023-03-23T12:11:27;20.10;90.00
39103;DHT22;24847;48.218;16.414;2023-03-23T12:17:02;19.40;90.90
39103;DHT22;24847;48.218;16.414;2023-03-23T12:22:39;19.50;91.30
39103;DHT22;24847;48.218;16.414;2023-03-23T12:28:11;19.90;91.60
39103;DHT22;24847;48.218;16.414;2023-03-23T12:33:48;20.00;91.50
39103;DHT22;24847;48.218;16.414;2023-03-23T12:45:49;19.80;90.60
39103;DHT22;24847;48.218;16.414;2023-03-23T12:51:21;19.30;91.40
39103;DHT22;24847;48.218;16.414;2023-03-23T12:56:52;19.10;92.30
39103;DHT22;24847;48.218;16.414;2023-03-23T13:02:21;19.00;93.50
39103;DHT22;24847;48.218;16.414;2023-03-23T13:07:48;19.20;93.70
39103;DHT22;24847;48.218;16.414;2023-03-23T13:13:18;19.10;94.40
39103;DHT22;24847;48.218;16.414;2023-03-23T13:18:49;19.30;94.70
39103;DHT22;24847;48.218;16.414;2023-03-23T13:24:27;19.20;94.30
39103;DHT22;24847;48.218;16.414;2023-03-23T13:29:54;19.10;93.90
39103;DHT22;24847;48.218;16.414;2023-03-23T13:35:19;19.10;94.20
39103;DHT22;24847;48.218;16.414;2023-03-23T13:40:43;19.30;93.40
39103;DHT22;24847;48.218;16.414;2023-03-23T13:46:12;19.00;93.70
39103;DHT22;24847;48.218;16.414;2023-03-23T13:51:59;19.00;93.60
39103;DHT22;24847;48.218;16.414;2023-03-23T13:57:49;19.00;92.40
39103;DHT22;24847;48.218;16.414;2023-03-23T14:03:19;19.00;92.30
39103;DHT22;24847;48.218;16.414;2023-03-23T14:08:50;19.10;92.70
39103;DHT22;24847;48.218;16.414;2023-03-23T14:14:17;19.20;92.20
39103;DHT22;24847;48.218;16.414;2023-03-23T14:19:47;19.20;92.20
39103;DHT22;24847;48.218;16.414;2023-03-23T14:25:13;19.30;91.90
39103;DHT22;24847;48.218;16.414;2023-03-23T14:30:37;19.30;91.80
39103;DHT22;24847;48.218;16.414;2023-03-23T14:36:01;19.30;91.50
39103;DHT22;24847;48.218;16.414;2023-03-23T14:41:23;19.40;91.70
39103;DHT22;24847;48.218;16.414;2023-03-23T14:46:46;19.30;91.00
39103;DHT22;24847;48.218;16.414;2023-03-23T14:52:12;19.30;91.10
39103;DHT22;24847;48.218;16.414;2023-03-23T14:57:35;19.20;91.20
39103;DHT22;24847;48.218;16.414;2023-03-23T15:03:04;19.40;90.60
39103;DHT22;24847;48.218;16.414;2023-03-23T15:08:30;19.50;89.70
39103;DHT22;24847;48.218;16.414;2023-03-23T15:13:57;19.40;89.30
39103;DHT22;24847;48.218;16.414;2023-03-23T15:19:24;19.40;87.60
39103;DHT22;24847;48.218;16.414;2023-03-23T15:24:51;19.60;88.30
39103;DHT22;24847;48.218;16.414;2023-03-23T15:30:31;19.60;89.90
39103;DHT22;24847;48.218;16.414;2023-03-23T15:35:56;19.60;88.60
39103;DHT22;24847;48.218;16.414;2023-03-23T15:41:25;19.60;90.00
39103;DHT22;24847;48.218;16.414;2023-03-23T15:46:49;19.70;90.30
39103;DHT22;24847;48.218;16.414;2023-03-23T15:52:13;19.40;90.50
39103;DHT22;24847;48.218;16.414;2023-03-23T15:57:38;19.60;90.00
39103;DHT22;24847;48.218;16.414;2023-03-23T16:03:04;19.90;86.90
39103;DHT22;24847;48.218;16.414;2023-03-23T16:08:27;19.90;85.30
39103;DHT22;24847;48.218;16.414;2023-03-23T16:13:51;19.90;84.80
39103;DHT22;24847;48.218;16.414;2023-03-23T16:19:15;19.70;87.60
39103;DHT22;24847;48.218;16.414;2023-03-23T16:24:40;19.60;88.80
39103;DHT22;24847;48.218;16.414;2023-03-23T16:30:12;19.50;89.10
39103;DHT22;24847;48.218;16.414;2023-03-23T16:35:36;19.40;89.50
39103;DHT22;24847;48.218;16.414;2023-03-23T16:40:59;19.30;89.60
39103;DHT22;24847;48.218;16.414;2023-03-23T16:46:23;19.20;90.10
39103;DHT22;24847;48.218;16.414;2023-03-23T16:51:46;19.10;90.30
39103;DHT22;24847;48.218;16.414;2023-03-23T16:57:09;19.00;90.60
39103;DHT22;24847;48.218;16.414;2023-03-23T17:02:33;19.00;91.00
39103;DHT22;24847;48.218;16.414;2023-03-23T17:07:56;19.00;90.90
39103;DHT22;24847;48.218;16.414;2023-03-23T17:13:18;18.90;91.20
39103;DHT22;24847;48.218;16.414;2023-03-23T17:18:42;18.90;91.50
39103;DHT22;24847;48.218;16.414;2023-03-23T17:24:05;18.80;91.90
39103;DHT22;24847;48.218;16.414;2023-03-23T17:29:28;18.60;92.30
39103;DHT22;24847;48.218;16.414;2023-03-23T17:34:53;18.50;92.70
39103;DHT22;24847;48.218;16.414;2023-03-23T17:40:16;18.40;92.90
39103;DHT22;24847;48.218;16.414;2023-03-23T17:45:40;18.30;93.30
39103;DHT22;24847;48.218;16.414;2023-03-23T17:51:05;18.20;93.80
39103;DHT22;24847;48.218;16.414;2023-03-23T17:56:30;18.10;94.20
39103;DHT22;24847;48.218;16.414;2023-03-23T18:01:52;18.10;94.50
39103;DHT22;24847;48.218;16.414;2023-03-23T18:07:17;18.00;94.90
39103;DHT22;24847;48.218;16.414;2023-03-23T18:12:43;17.90;95.30
39103;DHT22;24847;48.218;16.414;2023-03-23T18:18:08;18.00;95.40
39103;DHT22;24847;48.218;16.414;2023-03-23T18:23:33;17.90;95.50
39103;DHT22;24847;48.218;16.414;2023-03-23T18:28:57;17.90;95.60
39103;DHT22;24847;48.218;16.414;2023-03-23T18:34:22;18.00;95.60
39103;DHT22;24847;48.218;16.414;2023-03-23T18:39:46;17.90;95.60
39103;DHT22;24847;48.218;16.414;2023-03-23T18:45:11;17.80;95.90
39103;DHT22;24847;48.218;16.414;2023-03-23T18:50:35;17.80;96.10
39103;DHT22;24847;48.218;16.414;2023-03-23T18:56:12;17.70;96.20
39103;DHT22;24847;48.218;16.414;2023-03-23T19:01:38;17.70;96.30
39103;DHT22;24847;48.218;16.414;2023-03-23T19:07:02;17.60;96.40
39103;DHT22;24847;48.218;16.414;2023-03-23T19:12:28;17.50;96.70
39103;DHT22;24847;48.218;16.414;2023-03-23T19:17:52;17.40;96.70
39103;DHT22;24847;48.218;16.414;2023-03-23T19:23:17;17.40;96.80
39103;DHT22;24847;48.218;16.414;2023-03-23T19:28:43;17.20;97.40
39103;DHT22;24847;48.218;16.414;2023-03-23T19:34:07;17.10;97.40
39103;DHT22;24847;48.218;16.414;2023-03-23T19:39:31;16.90;98.20
39103;DHT22;24847;48.218;16.414;2023-03-23T19:44:56;16.90;98.40
39103;DHT22;24847;48.218;16.414;2023-03-23T19:50:20;16.70;98.90
39103;DHT22;24847;48.218;16.414;2023-03-23T19:55:47;16.70;99.20
39103;DHT22;24847;48.218;16.414;2023-03-23T20:01:14;16.70;99.50
39103;DHT22;24847;48.218;16.414;2023-03-23T20:06:39;16.50;99.90
39103;DHT22;24847;48.218;16.414;2023-03-23T20:12:03;16.20;99.90
39103;DHT22;24847;48.218;16.414;2023-03-23T20:17:28;16.30;99.90
39103;DHT22;24847;48.218;16.414;2023-03-23T20:22:53;16.50;99.90
39103;DHT22;24847;48.218;16.414;2023-03-23T20:28:17;16.80;99.90
39103;DHT22;24847;48.218;16.414;2023-03-23T20:33:46;16.80;99.90
39103;DHT22;24847;48.218;16.414;2023-03-23T20:39:14;16.70;99.90
39103;DHT22;24847;48.218;16.414;2023-03-23T20:44:39;16.60;99.90
39103;DHT22;24847;48.218;16.414;2023-03-23T20:50:06;16.40;99.90
39103;DHT22;24847;48.218;16.414;2023-03-23T20:55:31;16.10;99.90
39103;DHT22;24847;48.218;16.414;2023-03-23T21:00:59;15.80;99.90
39103;DHT22;24847;48.218;16.414;2023-03-23T21:06:26;15.90;99.90
39103;DHT22;24847;48.218;16.414;2023-03-23T21:11:53;16.30;99.90
39103;DHT22;24847;48.218;16.414;2023-03-23T21:17:21;16.20;99.90
39103;DHT22;24847;48.218;16.414;2023-03-23T21:22:46;15.90;99.90
39103;DHT22;24847;48.218;16.414;2023-03-23T21:28:10;16.00;99.90
39103;DHT22;24847;48.218;16.414;2023-03-23T21:33:33;15.70;99.90
39103;DHT22;24847;48.218;16.414;2023-03-23T21:38:59;16.00;99.90
39103;DHT22;24847;48.218;16.414;2023-03-23T21:44:24;16.10;99.90
39103;DHT22;24847;48.218;16.414;2023-03-23T21:49:46;15.80;99.90
39103;DHT22;24847;48.218;16.414;2023-03-23T21:55:11;15.60;99.90
39103;DHT22;24847;48.218;16.414;2023-03-23T22:00:34;15.70;99.90
39103;DHT22;24847;48.218;16.414;2023-03-23T22:05:58;15.80;99.90
39103;DHT22;24847;48.218;16.414;2023-03-23T22:11:28;15.80;99.90
39103;DHT22;24847;48.218;16.414;2023-03-23T22:16:52;15.70;99.90
39103;DHT22;24847;48.218;16.414;2023-03-23T22:22:15;14.60;99.90
39103;DHT22;24847;48.218;16.414;2023-03-23T22:27:40;15.00;99.90
39103;DHT22;24847;48.218;16.414;2023-03-23T22:33:04;14.90;99.90
39103;DHT22;24847;48.218;16.414;2023-03-23T22:38:27;15.30;99.90
39103;DHT22;24847;48.218;16.414;2023-03-23T22:43:51;15.40;99.90
39103;DHT22;24847;48.218;16.414;2023-03-23T22:49:14;15.00;99.90
39103;DHT22;24847;48.218;16.414;2023-03-23T22:54:36;14.70;99.90
39103;DHT22;24847;48.218;16.414;2023-03-23T23:00:00;14.90;99.90
39103;DHT22;24847;48.218;16.414;2023-03-23T23:05:25;14.80;99.90
39103;DHT22;24847;48.218;16.414;2023-03-23T23:10:49;14.10;99.90
39103;DHT22;24847;48.218;16.414;2023-03-23T23:16:20;14.20;99.90
39103;DHT22;24847;48.218;16.414;2023-03-23T23:21:44;14.10;99.90
39103;DHT22;24847;48.218;16.414;2023-03-23T23:27:06;13.80;99.90
39103;DHT22;24847;48.218;16.414;2023-03-23T23:32:30;13.80;99.90
39103;DHT22;24847;48.218;16.414;2023-03-23T23:37:53;13.80;99.90
39103;DHT22;24847;48.218;16.414;2023-03-23T23:43:16;14.30;99.90
39103;DHT22;24847;48.218;16.414;2023-03-23T23:48:40;13.90;99.90
39103;DHT22;24847;48.218;16.414;2023-03-23T23:54:03;13.80;99.90
39103;DHT22;24847;48.218;16.414;2023-03-23T23:59:26;14.20;99.90
